Transformer Ol — 3EZY5 — position and weather

sailwx.info

Track history (hours):
 
Tides and Currents Weather Stations Pressure Air Temp Water Temp Dewpoint Dewpoint Depression Visibility Wind Speed Wind Dir Waves Ship Positions

Transformer Ol

Last reported at 2017-Mar-19 20:23 UTC. Time now 2017-Apr-29 07:42 UTC.
Position N 30°58' E 122°33'.
Warning: this ship's position is 40 days out of date.

Length 169 m; draft 5.7 m.

Type: Cargo ship. MMSI: 372789000.

Date/timePositionNaut miles runAvg speedWind from/ knotsBaromVisibWave heightAir tempDewpointWater temp
2017-Mar-19 20:23N 30°58' E 122°33'1012.5
2017-Mar-19 19:33N 31°01' E 122°22'1110.9
2017-Mar-19 18:34N 31°03' E 122°09'1110.9
2017-Mar-19 17:33N 31°07' E 121°57'1212.2
2017-Mar-19 16:34N 31°15' E 121°47'1212.1
2017-Mar-19 15:34N 31°23' E 121°36'1010.4
2017-Mar-19 14:33N 31°29' E 121°26'1312.7
2017-Mar-19 13:34N 31°38' E 121°15'1514.0
2017-Mar-19 12:31N 31°46' E 121°01'3110.5
2017-Mar-19 09:33N 32°02' E 120°30'  
2017-Mar-15 17:10N 31°57' E 120°17'6 8.8
2017-Mar-15 16:32N 32°00' E 120°22'8 7.8
2017-Mar-15 15:33N 32°02' E 120°31'27 8.8
2017-Mar-15 12:27N 31°47' E 120°58'9 9.9
2017-Mar-15 11:32N 31°43' E 121°08'9 9.0
2017-Mar-15 10:33N 31°37' E 121°16'1211.6
2017-Mar-15 09:33N 31°30' E 121°26'8 7.9
2017-Mar-15 08:33N 31°24' E 121°33'10 9.7
2017-Mar-15 07:33N 31°20' E 121°43'9 8.7
2017-Mar-15 06:33N 31°16' E 121°52'1110.7
2017-Mar-15 05:33N 31°14' E 122°05'1110.5
2017-Mar-15 04:33N 31°08' E 122°15'  
Track history (hours):
 
Tides and Currents Weather Stations Pressure Air Temp Water Temp Dewpoint Dewpoint Depression Visibility Wind Speed Wind Dir Waves Ship Positions

Transformer Ol

Last reported at 2017-Mar-19 20:23 UTC. Time now 2017-Apr-29 07:42 UTC.
Position N 30°58' E 122°33'.
Warning: this ship's position is 40 days out of date.

Length 169 m; draft 5.7 m.

Type: Cargo ship. MMSI: 372789000.

Date/timePositionNaut miles runAvg speedWind from/ knotsBaromVisibWave heightAir tempDewpointWater temp
2017-Mar-19 20:23N 30°58' E 122°33'1012.5
2017-Mar-19 19:33N 31°01' E 122°22'1110.9
2017-Mar-19 18:34N 31°03' E 122°09'1110.9
2017-Mar-19 17:33N 31°07' E 121°57'1212.2
2017-Mar-19 16:34N 31°15' E 121°47'1212.1
2017-Mar-19 15:34N 31°23' E 121°36'1010.4
2017-Mar-19 14:33N 31°29' E 121°26'1312.7
2017-Mar-19 13:34N 31°38' E 121°15'1514.0
2017-Mar-19 12:31N 31°46' E 121°01'3110.5
2017-Mar-19 09:33N 32°02' E 120°30'  
2017-Mar-15 17:10N 31°57' E 120°17'6 8.8
2017-Mar-15 16:32N 32°00' E 120°22'8 7.8
2017-Mar-15 15:33N 32°02' E 120°31'27 8.8
2017-Mar-15 12:27N 31°47' E 120°58'9 9.9
2017-Mar-15 11:32N 31°43' E 121°08'9 9.0
2017-Mar-15 10:33N 31°37' E 121°16'1211.6
2017-Mar-15 09:33N 31°30' E 121°26'8 7.9
2017-Mar-15 08:33N 31°24' E 121°33'10 9.7
2017-Mar-15 07:33N 31°20' E 121°43'9 8.7
2017-Mar-15 06:33N 31°16' E 121°52'1110.7
2017-Mar-15 05:33N 31°14' E 122°05'1110.5
2017-Mar-15 04:33N 31°08' E 122°15'  

Dump ship's entire track history